aviador You're here:

KPCW Decoded Metar

in
Report Time2018-05-23 06:35:00
UTC Time2018-05-23 06:50:31
Flight Rules vfr VFR
Wind020° at 05 kt
W.Decomp.*RWY 36: 4.7 kt HW 1.7 kt RCW
RWY 09: 1.7 kt HW 4.7 kt LCW
W.Rank020° ranks 28
Current wind is below 020° avg. (7.3)
Visibility9999 m
Phenomena:N/A
Clouds:N/A
Expected CloudBase > 800 ft AGL from Temp-Dew spread
CeilingNone
Temp15°C
Dew Point13°C (88% RH)
AAT14.1°C
QNH1018 hPa
Raw Report
KPCW 230635Z AUTO 02005KT 10SM CLR 15/13 A3006 RMK AO2=

Extra information for KPCW:More info

Social comments